createdAt,value
2023-08-11T00:00:22.358Z,13.85
2023-08-11T00:03:12.223Z,11.18
2023-08-11T00:05:40.665Z,11.02
2023-08-11T00:08:09.480Z,12.65
2023-08-11T00:10:37.269Z,11.63
2023-08-11T00:13:07.975Z,11.75
2023-08-11T00:15:40.937Z,14.32
2023-08-11T00:18:12.039Z,12.00
2023-08-11T00:20:39.809Z,11.65
2023-08-11T00:23:07.656Z,12.80
2023-08-11T00:25:35.153Z,9.43
2023-08-11T00:28:02.955Z,13.88
2023-08-11T00:30:30.521Z,11.43
2023-08-11T00:32:58.990Z,18.67
2023-08-11T00:35:28.116Z,10.57
2023-08-11T00:37:56.270Z,13.88
2023-08-11T00:40:24.955Z,9.38
2023-08-11T00:42:52.787Z,12.40
2023-08-11T00:45:20.429Z,10.75
2023-08-11T00:47:49.822Z,15.65
2023-08-11T00:50:17.774Z,15.48
2023-08-11T00:52:49.119Z,11.20
2023-08-11T00:55:19.345Z,10.82
2023-08-11T00:57:47.808Z,12.82
2023-08-11T01:00:16.698Z,11.95
2023-08-11T01:02:45.819Z,16.40
2023-08-11T01:05:15.454Z,13.10
2023-08-11T01:07:49.167Z,12.75
2023-08-11T01:10:23.160Z,15.57
2023-08-11T01:13:01.469Z,14.55
2023-08-11T01:15:33.316Z,13.35
2023-08-11T01:18:01.882Z,17.13
2023-08-11T01:20:29.466Z,17.52
2023-08-11T01:23:01.004Z,13.52
2023-08-11T01:25:29.067Z,15.18
2023-08-11T01:27:59.227Z,16.25
2023-08-11T01:30:28.017Z,15.10
2023-08-11T01:32:55.949Z,17.17
2023-08-11T01:35:38.101Z,14.05
2023-08-11T01:38:10.070Z,16.58
2023-08-11T01:40:37.986Z,14.48
2023-08-11T01:43:06.684Z,17.20
2023-08-11T01:45:34.438Z,16.65
2023-08-11T01:48:03.662Z,15.82
2023-08-11T01:50:32.508Z,16.17
2023-08-11T01:53:00.282Z,18.25
2023-08-11T01:55:30.023Z,17.80
2023-08-11T01:58:00.166Z,14.80
2023-08-11T02:00:29.732Z,19.98
2023-08-11T02:02:58.896Z,13.73
2023-08-11T02:05:27.603Z,15.98
2023-08-11T02:07:56.982Z,15.98
2023-08-11T02:10:25.136Z,17.92
2023-08-11T02:12:53.859Z,18.65
2023-08-11T02:15:21.387Z,13.52
2023-08-11T02:17:50.001Z,15.40
2023-08-11T02:20:24.539Z,17.90
2023-08-11T02:22:53.999Z,18.10
2023-08-11T02:25:23.476Z,18.73
2023-08-11T02:27:52.111Z,14.55
2023-08-11T02:30:19.898Z,16.45
2023-08-11T02:32:47.898Z,18.00
2023-08-11T02:35:18.659Z,18.70
2023-08-11T02:37:46.882Z,17.67
2023-08-11T02:40:15.682Z,14.52
2023-08-11T02:42:49.725Z,15.73
2023-08-11T02:45:17.257Z,15.05
2023-08-11T02:47:45.220Z,16.98
2023-08-11T02:50:14.460Z,18.75
2023-08-11T02:52:42.419Z,20.42
2023-08-11T02:55:10.254Z,19.52
2023-08-11T02:57:38.126Z,21.10
2023-08-11T03:00:13.965Z,19.67
2023-08-11T03:02:42.657Z,20.58
2023-08-11T03:05:11.349Z,21.70
2023-08-11T03:07:40.561Z,19.75
2023-08-11T03:10:10.351Z,21.15
2023-08-11T03:12:40.125Z,22.50
2023-08-11T03:15:09.540Z,22.20
2023-08-11T03:17:37.640Z,20.48
2023-08-11T03:20:16.197Z,24.45
2023-08-11T03:22:46.398Z,23.67
2023-08-11T03:25:17.257Z,28.25
2023-08-11T03:27:45.046Z,29.95
2023-08-11T03:30:22.266Z,30.58
2023-08-11T03:32:54.483Z,26.33
2023-08-11T03:35:30.336Z,31.63
2023-08-11T03:37:58.172Z,31.92
2023-08-11T03:40:25.723Z,27.25
2023-08-11T03:42:54.868Z,32.28
2023-08-11T03:45:23.304Z,32.35
2023-08-11T03:47:51.710Z,26.15
2023-08-11T03:50:22.647Z,30.25
2023-08-11T03:52:50.542Z,29.67
2023-08-11T03:55:18.052Z,30.05
2023-08-11T03:57:47.130Z,33.22
2023-08-11T04:00:20.917Z,31.00
2023-08-11T04:02:59.247Z,33.85
2023-08-11T04:05:26.932Z,35.50
2023-08-11T04:07:54.704Z,33.33
2023-08-11T04:10:22.169Z,35.95
2023-08-11T04:12:49.955Z,37.38
2023-08-11T04:15:17.793Z,35.72
2023-08-11T04:17:45.572Z,32.22
2023-08-11T04:20:16.231Z,31.15
2023-08-11T04:22:44.294Z,32.38
2023-08-11T04:25:13.584Z,31.10
2023-08-11T04:27:44.739Z,32.78
2023-08-11T04:30:13.439Z,32.28
2023-08-11T04:32:44.624Z,34.28
2023-08-11T04:35:12.432Z,33.08
2023-08-11T04:37:42.538Z,34.78
2023-08-11T04:40:12.267Z,30.40
2023-08-11T04:42:42.217Z,32.13
2023-08-11T04:45:13.296Z,30.27
2023-08-11T04:47:42.130Z,24.67
2023-08-11T04:50:13.624Z,25.63
2023-08-11T04:52:43.249Z,28.00
2023-08-11T04:55:12.356Z,26.90
2023-08-11T04:57:40.062Z,22.63
2023-08-11T05:00:14.870Z,24.50
2023-08-11T05:02:43.153Z,23.80
2023-08-11T05:05:11.217Z,18.92
2023-08-11T05:07:41.030Z,21.65
2023-08-11T05:10:09.070Z,23.35
2023-08-11T05:12:36.918Z,18.75
2023-08-11T05:15:05.066Z,24.05
2023-08-11T05:17:33.357Z,17.48
2023-08-11T05:20:00.880Z,16.88
2023-08-11T05:22:28.591Z,19.40
2023-08-11T05:24:56.063Z,18.77
2023-08-11T05:27:23.929Z,18.85
2023-08-11T05:29:51.635Z,12.68
2023-08-11T05:32:19.480Z,14.70
2023-08-11T05:34:47.050Z,14.02
2023-08-11T05:37:14.841Z,18.75
2023-08-11T05:39:42.697Z,13.38
2023-08-11T05:42:10.683Z,14.48
2023-08-11T05:44:38.452Z,17.80
2023-08-11T05:47:07.645Z,12.70
2023-08-11T05:49:35.863Z,16.30
2023-08-11T05:52:03.705Z,14.10
2023-08-11T05:54:31.175Z,14.38
2023-08-11T05:56:59.007Z,13.32
2023-08-11T05:59:26.507Z,14.02
2023-08-11T06:01:54.287Z,12.52
2023-08-11T06:04:21.746Z,12.38
2023-08-11T06:06:49.530Z,9.88
2023-08-11T06:09:17.121Z,13.18
2023-08-11T06:11:45.113Z,15.30
2023-08-11T06:14:12.811Z,16.55
2023-08-11T06:16:40.613Z,16.90
2023-08-11T06:19:08.051Z,15.13
2023-08-11T06:21:36.355Z,12.35
2023-08-11T06:24:04.287Z,11.98
2023-08-11T06:26:32.865Z,12.00
2023-08-11T06:29:00.599Z,15.73
2023-08-11T06:31:28.498Z,14.82
2023-08-11T06:33:56.040Z,11.63
2023-08-11T06:36:24.780Z,9.23
2023-08-11T06:38:52.561Z,12.52
2023-08-11T06:41:21.619Z,12.88
2023-08-11T06:43:49.317Z,9.27
2023-08-11T06:46:17.418Z,11.55
2023-08-11T06:48:45.348Z,11.07
2023-08-11T06:51:13.287Z,9.27
2023-08-11T06:53:42.025Z,12.85
2023-08-11T06:56:10.843Z,6.80
2023-08-11T06:58:38.424Z,12.23
2023-08-11T07:01:06.244Z,9.30
2023-08-11T07:03:34.738Z,8.98
2023-08-11T07:06:05.578Z,13.70
2023-08-11T07:08:33.208Z,7.22
2023-08-11T07:11:01.040Z,10.10
2023-08-11T07:13:28.617Z,8.80
2023-08-11T07:15:57.629Z,23.63
2023-08-11T07:18:25.546Z,9.80
2023-08-11T07:20:55.561Z,7.15
2023-08-11T07:23:25.173Z,5.55
2023-08-11T07:25:53.167Z,23.88
2023-08-11T07:28:20.860Z,6.93
2023-08-11T07:30:48.775Z,7.78
2023-08-11T07:33:16.367Z,5.13
2023-08-11T07:35:44.138Z,8.30
2023-08-11T07:38:12.697Z,6.55
2023-08-11T07:40:41.108Z,9.43
2023-08-11T07:43:08.637Z,9.50
2023-08-11T07:45:36.385Z,8.45
2023-08-11T07:48:04.095Z,7.20
2023-08-11T07:50:31.902Z,6.10
2023-08-11T07:52:59.462Z,8.77
2023-08-11T07:55:27.267Z,5.07
2023-08-11T07:57:54.937Z,8.40
2023-08-11T08:00:26.248Z,4.95
2023-08-11T08:02:56.682Z,4.25
2023-08-11T08:05:24.977Z,5.20
2023-08-11T08:07:52.601Z,6.22
2023-08-11T08:10:21.467Z,7.15
2023-08-11T08:12:48.962Z,4.30
2023-08-11T08:15:18.216Z,4.88
2023-08-11T08:17:46.063Z,4.85
2023-08-11T08:20:20.059Z,7.78
2023-08-11T08:22:47.531Z,6.68
2023-08-11T08:25:16.240Z,11.13
2023-08-11T08:27:45.965Z,5.50
2023-08-11T08:30:14.297Z,7.57
2023-08-11T08:32:42.531Z,6.07
2023-08-11T08:35:11.195Z,4.40
2023-08-11T08:37:38.845Z,6.40
2023-08-11T08:40:09.216Z,5.07
2023-08-11T08:42:36.809Z,3.53
2023-08-11T08:45:04.897Z,7.07
2023-08-11T08:47:33.236Z,3.95
2023-08-11T08:50:01.785Z,4.93
2023-08-11T08:52:29.909Z,5.90
2023-08-11T08:54:57.816Z,7.43
2023-08-11T08:57:27.240Z,5.22
2023-08-11T08:59:55.133Z,2.80
2023-08-11T09:02:25.773Z,4.88
2023-08-11T09:04:53.487Z,3.45
2023-08-11T09:07:21.680Z,5.65
2023-08-11T09:09:49.332Z,4.28
2023-08-11T09:12:17.265Z,3.88
2023-08-11T09:14:45.019Z,7.47
2023-08-11T09:17:13.112Z,7.03
2023-08-11T09:19:44.195Z,8.40
2023-08-11T09:22:12.369Z,4.63
2023-08-11T09:24:41.805Z,4.60
2023-08-11T09:27:09.616Z,4.60
2023-08-11T09:29:38.070Z,4.88
2023-08-11T09:32:05.963Z,3.13
2023-08-11T09:34:34.841Z,5.60
2023-08-11T09:37:02.594Z,4.50
2023-08-11T09:39:30.651Z,4.95
2023-08-11T09:41:58.410Z,6.03
2023-08-11T09:44:27.068Z,4.13
2023-08-11T09:46:55.093Z,4.85
2023-08-11T09:49:22.789Z,6.82
2023-08-11T09:51:51.834Z,7.22
2023-08-11T09:54:20.260Z,4.70
2023-08-11T09:56:48.582Z,5.28
2023-08-11T09:59:18.796Z,5.93
2023-08-11T10:01:46.971Z,27.80
2023-08-11T10:04:20.643Z,10.38
2023-08-11T10:06:51.304Z,6.78
2023-08-11T10:09:23.825Z,7.10
2023-08-11T10:11:53.044Z,4.53
2023-08-11T10:14:22.291Z,6.30
2023-08-11T10:16:51.208Z,4.55
2023-08-11T10:19:20.400Z,4.35
2023-08-11T10:21:48.247Z,5.03
2023-08-11T10:24:16.310Z,4.53
2023-08-11T10:26:49.229Z,5.85
2023-08-11T10:29:17.588Z,4.95
2023-08-11T10:31:59.395Z,2.65
2023-08-11T10:34:27.916Z,4.20
2023-08-11T10:36:58.795Z,2.28
2023-08-11T10:39:27.462Z,6.03
2023-08-11T10:41:58.545Z,2.80
2023-08-11T10:44:29.892Z,3.50
2023-08-11T10:47:04.234Z,3.22
2023-08-11T10:49:35.225Z,4.32
2023-08-11T10:52:13.742Z,6.60
2023-08-11T10:54:52.942Z,3.33
2023-08-11T10:57:31.322Z,5.90
2023-08-11T11:00:01.198Z,11.35
2023-08-11T11:02:33.265Z,8.40
2023-08-11T11:05:01.287Z,6.68
2023-08-11T11:07:39.926Z,4.70
2023-08-11T11:10:08.060Z,6.28
2023-08-11T11:12:36.018Z,5.18
2023-08-11T11:15:03.990Z,5.22
2023-08-11T11:17:31.947Z,7.28
2023-08-11T11:20:02.693Z,3.92
2023-08-11T11:22:31.235Z,7.05
2023-08-11T11:25:05.564Z,5.00
2023-08-11T11:27:41.677Z,2.90
2023-08-11T11:30:10.749Z,4.20
2023-08-11T11:32:40.341Z,2.83
2023-08-11T11:35:09.522Z,4.43
2023-08-11T11:37:39.205Z,4.45
2023-08-11T11:40:10.590Z,6.38
2023-08-11T11:42:39.106Z,4.25
2023-08-11T11:45:07.257Z,4.72
2023-08-11T11:47:35.654Z,32.03
2023-08-11T11:50:08.460Z,5.13
2023-08-11T11:52:38.096Z,5.57
2023-08-11T11:55:07.423Z,3.70
2023-08-11T11:57:35.865Z,4.43
2023-08-11T12:00:17.621Z,3.72
2023-08-11T12:02:47.462Z,3.30
2023-08-11T12:05:15.978Z,5.70
2023-08-11T12:07:45.426Z,7.30
2023-08-11T12:10:13.405Z,3.05
2023-08-11T12:12:43.708Z,9.52
2023-08-11T12:15:11.973Z,7.05
2023-08-11T12:17:39.791Z,5.40
2023-08-11T12:20:09.510Z,3.53
2023-08-11T12:22:37.545Z,7.25
2023-08-11T12:25:05.179Z,5.68
2023-08-11T12:27:33.084Z,4.25
2023-08-11T12:30:00.644Z,5.85
2023-08-11T12:32:28.429Z,6.82
2023-08-11T12:34:56.015Z,5.30
2023-08-11T12:37:23.822Z,4.38
2023-08-11T12:39:51.277Z,4.43
2023-08-11T12:42:18.978Z,4.30
2023-08-11T12:44:47.327Z,3.17
2023-08-11T12:47:15.068Z,3.75
2023-08-11T12:49:42.932Z,2.25
2023-08-11T12:52:11.025Z,4.18
2023-08-11T12:54:38.875Z,4.57
2023-08-11T12:57:06.852Z,5.53
2023-08-11T12:59:34.384Z,3.53
2023-08-11T13:02:02.500Z,3.53
2023-08-11T13:04:29.972Z,3.72
2023-08-11T13:07:00.552Z,3.10
2023-08-11T13:09:28.662Z,3.25
2023-08-11T13:11:56.338Z,4.78
2023-08-11T13:14:23.910Z,3.20
2023-08-11T13:16:51.721Z,3.70
2023-08-11T13:19:20.198Z,4.60
2023-08-11T13:22:05.898Z,3.58
2023-08-11T13:24:36.272Z,4.97
2023-08-11T13:27:04.126Z,4.95
2023-08-11T13:29:32.416Z,6.80
2023-08-11T13:32:00.694Z,3.63
2023-08-11T13:34:29.668Z,4.10
2023-08-11T13:36:58.517Z,4.65
2023-08-11T13:39:26.389Z,3.33
2023-08-11T13:41:54.862Z,2.95
2023-08-11T13:44:24.479Z,4.95
2023-08-11T13:46:52.263Z,6.13
2023-08-11T13:49:21.649Z,3.65
2023-08-11T13:51:49.269Z,5.07
2023-08-11T13:54:17.096Z,3.25
2023-08-11T13:56:44.910Z,5.28
2023-08-11T13:59:13.259Z,3.65
2023-08-11T14:01:41.317Z,2.38
2023-08-11T14:04:10.051Z,4.88
2023-08-11T14:06:38.177Z,3.92
2023-08-11T14:09:06.873Z,4.28
2023-08-11T14:11:34.461Z,5.45
2023-08-11T14:14:02.278Z,4.50
2023-08-11T14:16:29.990Z,3.83
2023-08-11T14:18:57.923Z,4.65
2023-08-11T14:21:25.872Z,3.00
2023-08-11T14:23:53.701Z,6.38
2023-08-11T14:26:21.250Z,8.00
2023-08-11T14:28:49.487Z,3.47
2023-08-11T14:31:17.172Z,5.35
2023-08-11T14:33:45.314Z,6.93
2023-08-11T14:36:14.031Z,3.95
2023-08-11T14:38:42.528Z,5.53
2023-08-11T14:41:10.090Z,3.72
2023-08-11T14:43:38.406Z,3.55
2023-08-11T14:46:06.355Z,2.30
2023-08-11T14:48:34.239Z,4.35
2023-08-11T14:51:02.270Z,3.00
2023-08-11T14:53:30.450Z,4.55
2023-08-11T14:55:58.087Z,4.88
2023-08-11T14:58:26.005Z,3.45
2023-08-11T15:00:53.562Z,3.10
2023-08-11T15:03:22.180Z,5.63
2023-08-11T15:05:49.797Z,5.63
2023-08-11T15:08:17.781Z,4.28
2023-08-11T15:10:45.312Z,9.05
2023-08-11T15:13:14.788Z,4.05
2023-08-11T15:15:44.440Z,2.75
2023-08-11T15:18:12.307Z,6.35
2023-08-11T15:20:39.868Z,5.95
2023-08-11T15:23:07.680Z,8.05
2023-08-11T15:25:35.318Z,6.10
2023-08-11T15:28:03.050Z,6.55
2023-08-11T15:30:30.642Z,6.18
2023-08-11T15:32:58.440Z,7.53
2023-08-11T15:35:25.944Z,7.65
2023-08-11T15:37:54.126Z,5.07
2023-08-11T15:40:21.666Z,3.63
2023-08-11T15:42:49.427Z,3.70
2023-08-11T15:45:16.966Z,7.68
2023-08-11T15:47:44.891Z,4.55
2023-08-11T15:50:12.507Z,6.43
2023-08-11T15:52:40.382Z,9.18
2023-08-11T15:55:08.170Z,13.77
2023-08-11T15:57:35.949Z,6.40
2023-08-11T16:00:03.436Z,3.95
2023-08-11T16:02:38.868Z,8.50
2023-08-11T16:05:06.609Z,6.40
2023-08-11T16:07:34.906Z,6.63
2023-08-11T16:10:02.503Z,5.88
2023-08-11T16:12:30.312Z,6.32
2023-08-11T16:14:57.934Z,4.72
2023-08-11T16:17:27.162Z,3.78
2023-08-11T16:19:55.112Z,5.78
2023-08-11T16:22:23.065Z,6.03
2023-08-11T16:24:50.624Z,3.22
2023-08-11T16:27:18.552Z,7.45
2023-08-11T16:29:46.114Z,4.40
2023-08-11T16:32:15.396Z,5.63
2023-08-11T16:34:43.104Z,6.72
2023-08-11T16:37:10.974Z,5.20
2023-08-11T16:39:39.332Z,5.05
2023-08-11T16:42:11.453Z,5.38
2023-08-11T16:44:39.250Z,5.85
2023-08-11T16:47:07.255Z,5.95
2023-08-11T16:49:35.061Z,4.50
2023-08-11T16:52:03.654Z,4.45
2023-08-11T16:54:32.113Z,6.00
2023-08-11T16:57:00.094Z,5.35
2023-08-11T16:59:27.842Z,10.93
2023-08-11T17:01:56.733Z,8.55
2023-08-11T17:04:24.808Z,5.65
2023-08-11T17:06:52.963Z,3.72
2023-08-11T17:09:20.616Z,4.43
2023-08-11T17:11:48.553Z,4.13
2023-08-11T17:14:17.085Z,4.78
2023-08-11T17:16:44.949Z,10.43
2023-08-11T17:19:12.602Z,6.90
2023-08-11T17:21:41.106Z,8.25
2023-08-11T17:24:08.908Z,6.57
2023-08-11T17:26:36.752Z,6.50
2023-08-11T17:29:04.958Z,7.50
2023-08-11T17:31:39.439Z,5.85
2023-08-11T17:34:07.207Z,5.95
2023-08-11T17:36:34.724Z,4.05
2023-08-11T17:39:02.472Z,7.47
2023-08-11T17:41:30.069Z,8.25
2023-08-11T17:43:57.918Z,9.23
2023-08-11T17:46:27.016Z,6.38
2023-08-11T17:48:54.942Z,4.85
2023-08-11T17:51:23.784Z,6.10
2023-08-11T17:54:07.763Z,6.78
2023-08-11T17:56:37.217Z,14.18
2023-08-11T17:59:05.293Z,9.45
2023-08-11T18:01:33.149Z,6.55
2023-08-11T18:04:03.491Z,5.35
2023-08-11T18:06:34.855Z,5.85
2023-08-11T18:09:04.657Z,5.72
2023-08-11T18:11:32.489Z,6.55
2023-08-11T18:14:00.201Z,12.18
2023-08-11T18:16:28.230Z,11.82
2023-08-11T18:18:56.296Z,7.07
2023-08-11T18:21:28.001Z,14.57
2023-08-11T18:23:58.097Z,9.85
2023-08-11T18:26:26.182Z,11.07
2023-08-11T18:29:05.712Z,9.00
2023-08-11T18:31:33.376Z,10.43
2023-08-11T18:34:01.609Z,11.98
2023-08-11T18:36:30.142Z,13.82
2023-08-11T18:38:58.070Z,8.35
2023-08-11T18:41:27.589Z,10.95
2023-08-11T18:43:56.528Z,6.72
2023-08-11T18:46:25.427Z,8.23
2023-08-11T18:48:53.800Z,9.23
2023-08-11T18:51:22.751Z,14.85
2023-08-11T18:53:55.933Z,8.80
2023-08-11T18:56:23.687Z,11.45
2023-08-11T18:58:54.371Z,8.27
2023-08-11T19:01:21.957Z,9.98
2023-08-11T19:03:50.796Z,8.07
2023-08-11T19:06:21.056Z,11.23
2023-08-11T19:08:54.072Z,10.50
2023-08-11T19:11:25.555Z,10.52
2023-08-11T19:13:53.899Z,11.60
2023-08-11T19:16:22.831Z,11.27
2023-08-11T19:18:58.210Z,9.25
2023-08-11T19:21:26.119Z,9.50
2023-08-11T19:23:54.015Z,13.48
2023-08-11T19:26:21.636Z,9.10
2023-08-11T19:28:50.074Z,6.25
2023-08-11T19:31:18.123Z,13.32
2023-08-11T19:33:47.074Z,9.65
2023-08-11T19:36:14.672Z,11.95
2023-08-11T19:38:47.203Z,10.82
2023-08-11T19:41:15.997Z,12.82
2023-08-11T19:43:45.160Z,11.20
2023-08-11T19:46:15.241Z,8.35
2023-08-11T19:48:44.114Z,7.40
2023-08-11T19:51:12.109Z,11.75
2023-08-11T19:53:43.359Z,18.60
2023-08-11T19:56:11.493Z,9.75
2023-08-11T19:58:39.365Z,9.27
2023-08-11T20:01:08.911Z,8.75
2023-08-11T20:03:39.591Z,13.68
2023-08-11T20:06:07.836Z,9.32
2023-08-11T20:08:36.226Z,10.25
2023-08-11T20:11:16.214Z,9.30
2023-08-11T20:13:44.439Z,12.00
2023-08-11T20:16:11.997Z,9.38
2023-08-11T20:18:43.263Z,12.82
2023-08-11T20:21:11.066Z,11.60
2023-08-11T20:23:38.948Z,10.80
2023-08-11T20:26:06.460Z,10.90
2023-08-11T20:28:34.279Z,10.93
2023-08-11T20:31:02.734Z,14.35
2023-08-11T20:33:30.742Z,10.25
2023-08-11T20:35:59.738Z,11.02
2023-08-11T20:38:27.858Z,11.38
2023-08-11T20:40:58.255Z,16.13
2023-08-11T20:43:26.285Z,11.63
2023-08-11T20:45:53.790Z,10.93
2023-08-11T20:48:21.742Z,9.80
2023-08-11T20:50:52.863Z,11.07
2023-08-11T20:53:22.539Z,12.27
2023-08-11T20:55:50.384Z,15.60
2023-08-11T20:58:18.299Z,12.07
2023-08-11T21:00:46.574Z,12.27
2023-08-11T21:03:14.397Z,11.95
2023-08-11T21:05:43.462Z,10.30
2023-08-11T21:08:16.129Z,8.18
2023-08-11T21:10:44.700Z,12.90
2023-08-11T21:13:13.162Z,12.45
2023-08-11T21:15:40.809Z,14.80
2023-08-11T21:18:09.105Z,11.27
2023-08-11T21:20:36.862Z,10.40
2023-08-11T21:23:05.554Z,12.82
2023-08-11T21:25:34.905Z,8.98
2023-08-11T21:28:02.972Z,11.63
2023-08-11T21:30:30.625Z,16.38
2023-08-11T21:32:58.507Z,12.52
2023-08-11T21:35:26.186Z,9.80
2023-08-11T21:37:54.111Z,10.48
2023-08-11T21:40:21.663Z,12.82
2023-08-11T21:42:50.056Z,10.45
2023-08-11T21:45:17.722Z,15.32
2023-08-11T21:47:45.671Z,11.85
2023-08-11T21:50:13.760Z,11.95
2023-08-11T21:52:42.122Z,12.15
2023-08-11T21:55:09.914Z,12.73
2023-08-11T21:57:38.902Z,15.70
2023-08-11T22:00:06.805Z,13.20
2023-08-11T22:02:35.674Z,11.60
2023-08-11T22:05:03.495Z,15.90
2023-08-11T22:07:31.429Z,9.88
2023-08-11T22:09:59.049Z,13.85
2023-08-11T22:12:28.058Z,12.52
2023-08-11T22:14:55.720Z,13.10
2023-08-11T22:17:26.585Z,11.57
2023-08-11T22:19:54.070Z,12.18
2023-08-11T22:22:21.970Z,12.02
2023-08-11T22:24:50.131Z,18.33
2023-08-11T22:27:17.822Z,14.32
2023-08-11T22:29:50.028Z,11.02
2023-08-11T22:32:17.831Z,12.18
2023-08-11T22:34:47.869Z,12.30
2023-08-11T22:37:18.292Z,15.98
2023-08-11T22:39:50.662Z,13.05
2023-08-11T22:42:18.941Z,11.38
2023-08-11T22:44:46.686Z,12.85
2023-08-11T22:47:14.894Z,11.90
2023-08-11T22:49:42.330Z,10.25
2023-08-11T22:52:10.300Z,11.93
2023-08-11T22:54:38.204Z,13.05
2023-08-11T22:57:06.050Z,12.07
2023-08-11T22:59:33.571Z,13.80
2023-08-11T23:02:01.390Z,11.95
2023-08-11T23:04:28.925Z,13.98
2023-08-11T23:06:56.787Z,15.15
2023-08-11T23:09:24.548Z,15.70
2023-08-11T23:11:52.417Z,18.15
2023-08-11T23:14:19.985Z,12.73
2023-08-11T23:16:47.888Z,13.15
2023-08-11T23:19:15.400Z,16.08
2023-08-11T23:21:43.110Z,15.07
2023-08-11T23:24:10.792Z,15.13
2023-08-11T23:26:38.524Z,13.98
2023-08-11T23:29:06.026Z,10.77
2023-08-11T23:31:34.170Z,14.15
2023-08-11T23:34:01.770Z,15.23
2023-08-11T23:36:30.287Z,12.68
2023-08-11T23:38:57.797Z,15.43
2023-08-11T23:41:26.491Z,18.13
2023-08-11T23:43:53.951Z,14.93
2023-08-11T23:46:21.749Z,11.55
2023-08-11T23:48:49.211Z,13.07
2023-08-11T23:51:17.085Z,16.27
2023-08-11T23:53:44.521Z,12.57
2023-08-11T23:56:13.362Z,11.55
2023-08-11T23:58:40.863Z,13.45
